ARG1784 SABE-SARI
Flight info
| Callsign | ARG1784 |
|---|---|
| Flight time | 1h 30m |
| Altitude | 37000 |
| Route | LANDA3B LANDA UN785 GEMSU UT667 NAIDE |
| Aircraft | B738/M-SDE2E3FGHIRWXY/LB1 |
Departure
| Time | 2026-04-14 17:18 |
|---|---|
| Airport | Aeroparque Jorge Newbery (SABE) |
Arrival
| Time | 2026-04-14 18:49 |
|---|---|
| Airport | Cataratas Del Iguazú International Airport (SARI) |
| Time | Latitude | Longitude | Altitude | Speed | Heading |
|---|---|---|---|---|---|
| 2026-04-14 16:50 | -34.55822 | -58.41404 | 26 ft | 0 kts | 209° |
| 2026-04-14 17:08 | -34.55819 | -58.41402 | 30 ft | 2 kts | 208° |
| 2026-04-14 17:08 | -34.55806 | -58.41394 | 31 ft | 2 kts | 207° |
| 2026-04-14 17:08 | -34.55794 | -58.41386 | 30 ft | 2 kts | 212° |
| 2026-04-14 17:08 | -34.55787 | -58.41381 | 32 ft | 1 kts | 255° |
| 2026-04-14 17:09 | -34.55786 | -58.41373 | 32 ft | 1 kts | 290° |
| 2026-04-14 17:09 | -34.55789 | -58.41366 | 31 ft | 1 kts | 301° |
| 2026-04-14 17:09 | -34.55792 | -58.41360 | 32 ft | 1 kts | 303° |
| 2026-04-14 17:09 | -34.55793 | -58.41358 | 32 ft | 0 kts | 304° |
| 2026-04-14 17:11 | -34.55791 | -58.41362 | 31 ft | 2 kts | 303° |
| 2026-04-14 17:12 | -34.55779 | -58.41384 | 30 ft | 4 kts | 302° |
| 2026-04-14 17:12 | -34.55766 | -58.41410 | 27 ft | 4 kts | 302° |
| 2026-04-14 17:12 | -34.55752 | -58.41438 | 27 ft | 5 kts | 300° |
| 2026-04-14 17:12 | -34.55735 | -58.41473 | 27 ft | 5 kts | 300° |
| 2026-04-14 17:13 | -34.55725 | -58.41511 | 27 ft | 5 kts | 272° |
| 2026-04-14 17:13 | -34.55736 | -58.41548 | 30 ft | 5 kts | 232° |
| 2026-04-14 17:13 | -34.55760 | -58.41575 | 26 ft | 5 kts | 216° |
| 2026-04-14 17:13 | -34.55783 | -58.41603 | 27 ft | 5 kts | 243° |
| 2026-04-14 17:14 | -34.55777 | -58.41645 | 27 ft | 6 kts | 292° |
| 2026-04-14 17:14 | -34.55760 | -58.41691 | 27 ft | 7 kts | 297° |
| 2026-04-14 17:14 | -34.55736 | -58.41745 | 26 ft | 8 kts | 297° |
| 2026-04-14 17:14 | -34.55706 | -58.41803 | 25 ft | 8 kts | 304° |
| 2026-04-14 17:15 | -34.55673 | -58.41863 | 28 ft | 9 kts | 304° |
| 2026-04-14 17:15 | -34.55640 | -58.41921 | 29 ft | 8 kts | 304° |
| 2026-04-14 17:15 | -34.55609 | -58.41980 | 29 ft | 8 kts | 303° |
| 2026-04-14 17:15 | -34.55573 | -58.42039 | 30 ft | 9 kts | 306° |
| 2026-04-14 17:16 | -34.55535 | -58.42102 | 27 ft | 10 kts | 306° |
| 2026-04-14 17:16 | -34.55496 | -58.42167 | 29 ft | 10 kts | 306° |
| 2026-04-14 17:16 | -34.55456 | -58.42234 | 26 ft | 10 kts | 306° |
| 2026-04-14 17:16 | -34.55415 | -58.42302 | 29 ft | 10 kts | 309° |
| 2026-04-14 17:17 | -34.55372 | -58.42376 | 30 ft | 11 kts | 291° |
| 2026-04-14 17:17 | -34.55362 | -58.42469 | 26 ft | 11 kts | 258° |
| 2026-04-14 17:17 | -34.55402 | -58.42506 | 26 ft | 3 kts | 146° |
| 2026-04-14 17:17 | -34.55423 | -58.42474 | 30 ft | 18 kts | 125° |
| 2026-04-14 17:18 | -34.55657 | -58.42055 | 27 ft | 100 kts | 123° |
| 2026-04-14 17:18 | -34.56175 | -58.41103 | 93 ft | 162 kts | 122° |
| 2026-04-14 17:18 | -34.56827 | -58.39939 | 866 ft | 165 kts | 122° |
| 2026-04-14 17:18 | -34.57424 | -58.38717 | 1868 ft | 175 kts | 103° |
| 2026-04-14 17:19 | -34.57400 | -58.37163 | 2346 ft | 197 kts | 67° |
| 2026-04-14 17:19 | -34.56643 | -58.35679 | 2555 ft | 220 kts | 44° |
| 2026-04-14 17:19 | -34.55390 | -58.34523 | 2968 ft | 232 kts | 33° |
| 2026-04-14 17:19 | -34.53994 | -58.33420 | 3295 ft | 250 kts | 32° |
| 2026-04-14 17:20 | -34.52502 | -58.32270 | 3968 ft | 257 kts | 32° |
| 2026-04-14 17:20 | -34.50970 | -58.31093 | 4890 ft | 257 kts | 32° |
| 2026-04-14 17:20 | -34.49471 | -58.29944 | 5698 ft | 261 kts | 30° |
| 2026-04-14 17:20 | -34.47749 | -58.29235 | 6416 ft | 267 kts | 5° |
| 2026-04-14 17:21 | -34.45898 | -58.29482 | 7163 ft | 271 kts | 343° |
| 2026-04-14 17:21 | -34.44129 | -58.30303 | 7969 ft | 275 kts | 339° |
| 2026-04-14 17:21 | -34.42352 | -58.31221 | 8728 ft | 279 kts | 338° |
| 2026-04-14 17:21 | -34.40561 | -58.32163 | 9499 ft | 282 kts | 337° |
| 2026-04-14 17:22 | -34.38746 | -58.33115 | 10213 ft | 286 kts | 337° |
| 2026-04-14 17:22 | -34.36855 | -58.34101 | 10473 ft | 308 kts | 337° |
| 2026-04-14 17:22 | -34.34816 | -58.35156 | 10644 ft | 330 kts | 337° |
| 2026-04-14 17:22 | -34.32633 | -58.36280 | 10806 ft | 350 kts | 337° |
| 2026-04-14 17:23 | -34.30354 | -58.37449 | 11220 ft | 360 kts | 337° |
| 2026-04-14 17:23 | -34.28035 | -58.38636 | 11840 ft | 363 kts | 337° |
| 2026-04-14 17:23 | -34.25698 | -58.39829 | 12486 ft | 365 kts | 336° |
| 2026-04-14 17:23 | -34.23349 | -58.41026 | 13104 ft | 368 kts | 336° |
| 2026-04-14 17:24 | -34.20979 | -58.42233 | 13721 ft | 371 kts | 336° |
| 2026-04-14 17:24 | -34.18584 | -58.43452 | 14258 ft | 374 kts | 336° |
| 2026-04-14 17:24 | -34.16206 | -58.44660 | 14782 ft | 377 kts | 336° |
| 2026-04-14 17:24 | -34.13775 | -58.45895 | 15310 ft | 381 kts | 336° |
| 2026-04-14 17:25 | -34.11323 | -58.47140 | 15844 ft | 384 kts | 336° |
| 2026-04-14 17:25 | -34.08850 | -58.48395 | 16369 ft | 387 kts | 336° |
| 2026-04-14 17:25 | -34.06391 | -58.49641 | 16882 ft | 390 kts | 336° |
| 2026-04-14 17:25 | -34.03885 | -58.50912 | 17397 ft | 393 kts | 336° |
| 2026-04-14 17:26 | -34.01353 | -58.52194 | 17889 ft | 396 kts | 336° |
| 2026-04-14 17:26 | -33.98838 | -58.53467 | 18710 ft | 387 kts | 335° |
| 2026-04-14 17:26 | -33.96393 | -58.54702 | 19641 ft | 376 kts | 335° |
| 2026-04-14 17:26 | -33.94022 | -58.55899 | 20620 ft | 364 kts | 335° |
| 2026-04-14 17:27 | -33.91681 | -58.56987 | 21483 ft | 359 kts | 341° |
| 2026-04-14 17:27 | -33.89233 | -58.57632 | 21991 ft | 365 kts | 351° |
| 2026-04-14 17:27 | -33.86675 | -58.57825 | 22417 ft | 371 kts | 355° |
| 2026-04-14 17:27 | -33.84076 | -58.57929 | 22894 ft | 375 kts | 355° |
| 2026-04-14 17:28 | -33.81462 | -58.58013 | 23395 ft | 377 kts | 356° |
| 2026-04-14 17:28 | -33.78830 | -58.58099 | 23830 ft | 380 kts | 355° |
| 2026-04-14 17:28 | -33.77071 | -58.58161 | 24107 ft | 381 kts | 355° |
| 2026-04-14 17:28 | -33.73517 | -58.58297 | 24685 ft | 383 kts | 354° |
| 2026-04-14 17:29 | -33.71747 | -58.58368 | 24974 ft | 384 kts | 354° |
| 2026-04-14 17:29 | -33.69065 | -58.58480 | 25400 ft | 386 kts | 354° |
| 2026-04-14 17:29 | -33.66380 | -58.58595 | 25809 ft | 388 kts | 354° |
| 2026-04-14 17:29 | -33.63679 | -58.58712 | 26215 ft | 389 kts | 353° |
| 2026-04-14 17:30 | -33.60960 | -58.58830 | 26620 ft | 391 kts | 353° |
| 2026-04-14 17:30 | -33.58238 | -58.58948 | 27017 ft | 392 kts | 353° |
| 2026-04-14 17:30 | -33.55504 | -58.59067 | 27412 ft | 394 kts | 353° |
| 2026-04-14 17:30 | -33.52761 | -58.59186 | 27798 ft | 396 kts | 352° |
| 2026-04-14 17:31 | -33.50000 | -58.59306 | 28178 ft | 397 kts | 352° |
| 2026-04-14 17:31 | -33.47228 | -58.59426 | 28556 ft | 399 kts | 352° |
| 2026-04-14 17:31 | -33.44452 | -58.59547 | 28926 ft | 400 kts | 352° |
| 2026-04-14 17:31 | -33.41666 | -58.59667 | 29297 ft | 401 kts | 352° |
| 2026-04-14 17:32 | -33.38868 | -58.59788 | 29652 ft | 403 kts | 351° |
| 2026-04-14 17:32 | -33.36057 | -58.59910 | 29997 ft | 404 kts | 351° |
| 2026-04-14 17:32 | -33.33281 | -58.60029 | 30281 ft | 406 kts | 351° |
| 2026-04-14 17:32 | -33.30455 | -58.60151 | 30588 ft | 407 kts | 351° |
| 2026-04-14 17:33 | -33.27626 | -58.60273 | 30864 ft | 408 kts | 351° |
| 2026-04-14 17:33 | -33.24779 | -58.60396 | 31123 ft | 410 kts | 351° |
| 2026-04-14 17:33 | -33.21929 | -58.60519 | 31376 ft | 411 kts | 351° |
| 2026-04-14 17:34 | -33.16183 | -58.60765 | 31916 ft | 413 kts | 351° |
| 2026-04-14 17:34 | -33.13301 | -58.60889 | 32171 ft | 414 kts | 351° |
| 2026-04-14 17:34 | -33.10423 | -58.61012 | 32410 ft | 415 kts | 351° |
| 2026-04-14 17:34 | -33.07539 | -58.61136 | 32661 ft | 416 kts | 351° |
| 2026-04-14 17:35 | -33.04645 | -58.61260 | 32915 ft | 417 kts | 351° |
| 2026-04-14 17:35 | -33.01722 | -58.61225 | 33124 ft | 424 kts | 358° |
| 2026-04-14 17:35 | -32.98777 | -58.60696 | 33322 ft | 434 kts | 7° |
| 2026-04-14 17:35 | -32.95848 | -58.59683 | 33564 ft | 438 kts | 9° |
| 2026-04-14 17:36 | -32.92944 | -58.58597 | 33806 ft | 439 kts | 10° |
| 2026-04-14 17:36 | -32.90030 | -58.57492 | 34024 ft | 439 kts | 10° |
| 2026-04-14 17:36 | -32.87107 | -58.56389 | 34197 ft | 440 kts | 10° |
| 2026-04-14 17:36 | -32.84182 | -58.55298 | 34359 ft | 441 kts | 9° |
| 2026-04-14 17:37 | -32.81247 | -58.54215 | 34516 ft | 442 kts | 9° |
| 2026-04-14 17:37 | -32.78305 | -58.53138 | 34664 ft | 443 kts | 9° |
| 2026-04-14 17:37 | -32.75353 | -58.52062 | 34814 ft | 444 kts | 9° |
| 2026-04-14 17:37 | -32.72398 | -58.50986 | 34976 ft | 445 kts | 9° |
| 2026-04-14 17:38 | -32.69443 | -58.49911 | 35203 ft | 444 kts | 9° |
| 2026-04-14 17:38 | -32.66485 | -58.48835 | 35435 ft | 443 kts | 9° |
| 2026-04-14 17:38 | -32.63540 | -58.47765 | 35612 ft | 442 kts | 9° |
| 2026-04-14 17:38 | -32.60642 | -58.46713 | 35754 ft | 442 kts | 9° |
| 2026-04-14 17:39 | -32.57700 | -58.45646 | 35895 ft | 443 kts | 9° |
| 2026-04-14 17:39 | -32.54753 | -58.44578 | 36054 ft | 442 kts | 9° |
| 2026-04-14 17:39 | -32.51806 | -58.43510 | 36228 ft | 442 kts | 9° |
| 2026-04-14 17:39 | -32.48874 | -58.42448 | 36397 ft | 441 kts | 9° |
| 2026-04-14 17:40 | -32.45941 | -58.41386 | 36546 ft | 441 kts | 8° |
| 2026-04-14 17:40 | -32.43005 | -58.40325 | 36666 ft | 441 kts | 8° |
| 2026-04-14 17:40 | -32.40063 | -58.39262 | 36798 ft | 441 kts | 8° |
| 2026-04-14 17:40 | -32.37119 | -58.38198 | 36910 ft | 442 kts | 8° |
| 2026-04-14 17:41 | -32.34172 | -58.37136 | 36935 ft | 444 kts | 8° |
| 2026-04-14 17:41 | -32.28224 | -58.34995 | 36948 ft | 449 kts | 9° |
| 2026-04-14 17:42 | -32.22228 | -58.32838 | 36940 ft | 453 kts | 9° |
| 2026-04-14 17:42 | -32.16177 | -58.30662 | 36932 ft | 455 kts | 9° |
| 2026-04-14 17:43 | -32.10130 | -58.28486 | 36917 ft | 451 kts | 9° |
| 2026-04-14 17:43 | -32.04214 | -58.26356 | 36922 ft | 445 kts | 9° |
| 2026-04-14 17:44 | -31.98299 | -58.24239 | 36926 ft | 443 kts | 9° |
| 2026-04-14 17:44 | -31.92402 | -58.22131 | 36925 ft | 442 kts | 10° |
| 2026-04-14 17:45 | -31.86540 | -58.20038 | 36919 ft | 440 kts | 10° |
| 2026-04-14 17:45 | -31.80677 | -58.17946 | 36927 ft | 438 kts | 10° |
| 2026-04-14 17:46 | -31.74852 | -58.15871 | 36926 ft | 437 kts | 10° |
| 2026-04-14 17:46 | -31.69031 | -58.13800 | 36926 ft | 437 kts | 10° |
| 2026-04-14 17:47 | -31.63218 | -58.11734 | 36931 ft | 436 kts | 10° |
| 2026-04-14 17:47 | -31.57401 | -58.09670 | 36934 ft | 437 kts | 10° |
| 2026-04-14 17:48 | -31.51577 | -58.07606 | 36936 ft | 438 kts | 10° |
| 2026-04-14 17:48 | -31.45769 | -58.05551 | 36941 ft | 439 kts | 10° |
| 2026-04-14 17:49 | -31.39911 | -58.03480 | 36939 ft | 440 kts | 10° |
| 2026-04-14 17:49 | -31.34033 | -58.01405 | 36942 ft | 442 kts | 10° |
| 2026-04-14 17:50 | -31.28138 | -57.99326 | 36940 ft | 443 kts | 10° |
| 2026-04-14 17:50 | -31.22240 | -57.97248 | 36933 ft | 444 kts | 10° |
| 2026-04-14 17:51 | -31.16313 | -57.95164 | 36939 ft | 444 kts | 10° |
| 2026-04-14 17:51 | -31.10385 | -57.93081 | 36928 ft | 445 kts | 10° |
| 2026-04-14 17:52 | -31.04477 | -57.91006 | 36976 ft | 436 kts | 10° |
| 2026-04-14 17:52 | -31.01644 | -57.90004 | 37305 ft | 416 kts | 10° |
| 2026-04-14 17:52 | -30.98930 | -57.89048 | 37676 ft | 410 kts | 9° |
| 2026-04-14 17:52 | -30.96185 | -57.88087 | 38054 ft | 404 kts | 9° |
| 2026-04-14 17:53 | -30.93549 | -57.87167 | 38434 ft | 397 kts | 9° |
| 2026-04-14 17:53 | -30.90922 | -57.86250 | 38775 ft | 391 kts | 9° |
| 2026-04-14 17:53 | -30.88351 | -57.85354 | 38906 ft | 390 kts | 8° |
| 2026-04-14 17:54 | -30.83082 | -57.83525 | 38781 ft | 397 kts | 9° |
| 2026-04-14 17:54 | -30.80382 | -57.82591 | 38301 ft | 412 kts | 9° |
| 2026-04-14 17:54 | -30.77587 | -57.81621 | 37833 ft | 426 kts | 9° |
| 2026-04-14 17:54 | -30.74717 | -57.80618 | 37333 ft | 434 kts | 10° |
| 2026-04-14 17:55 | -30.71842 | -57.79609 | 37203 ft | 425 kts | 10° |
| 2026-04-14 17:55 | -30.69006 | -57.78617 | 37015 ft | 431 kts | 10° |
| 2026-04-14 17:55 | -30.66114 | -57.77610 | 36939 ft | 436 kts | 10° |
| 2026-04-14 17:56 | -30.60260 | -57.75563 | 36924 ft | 442 kts | 11° |
| 2026-04-14 17:56 | -30.54329 | -57.73486 | 36913 ft | 448 kts | 11° |
| 2026-04-14 17:57 | -30.48321 | -57.71385 | 36916 ft | 453 kts | 11° |
| 2026-04-14 17:57 | -30.42254 | -57.69265 | 36911 ft | 457 kts | 11° |
| 2026-04-14 17:58 | -30.36145 | -57.67134 | 36912 ft | 459 kts | 11° |
| 2026-04-14 17:58 | -30.30017 | -57.65000 | 36907 ft | 460 kts | 11° |
| 2026-04-14 17:59 | -30.24152 | -57.62004 | 36899 ft | 472 kts | 28° |
| 2026-04-14 17:59 | -30.18744 | -57.57684 | 36907 ft | 473 kts | 30° |
| 2026-04-14 18:00 | -30.13374 | -57.53305 | 36902 ft | 472 kts | 30° |
| 2026-04-14 18:00 | -30.05300 | -57.46832 | 36896 ft | 470 kts | 29° |
| 2026-04-14 18:01 | -29.99918 | -57.42564 | 36904 ft | 469 kts | 29° |
| 2026-04-14 18:01 | -29.94540 | -57.38308 | 36906 ft | 468 kts | 29° |
| 2026-04-14 18:02 | -29.89156 | -57.34052 | 36905 ft | 469 kts | 29° |
| 2026-04-14 18:02 | -29.83772 | -57.29799 | 36916 ft | 469 kts | 29° |
| 2026-04-14 18:03 | -29.78382 | -57.25548 | 36920 ft | 471 kts | 29° |
| 2026-04-14 18:03 | -29.73008 | -57.21313 | 36915 ft | 472 kts | 29° |
| 2026-04-14 18:04 | -29.67580 | -57.17043 | 36912 ft | 473 kts | 29° |
| 2026-04-14 18:04 | -29.62133 | -57.12763 | 36915 ft | 475 kts | 29° |
| 2026-04-14 18:05 | -29.56671 | -57.08476 | 36912 ft | 476 kts | 29° |
| 2026-04-14 18:05 | -29.51200 | -57.04188 | 36908 ft | 476 kts | 29° |
| 2026-04-14 18:06 | -29.45722 | -56.99901 | 36899 ft | 477 kts | 29° |
| 2026-04-14 18:06 | -29.40252 | -56.95625 | 36901 ft | 476 kts | 29° |
| 2026-04-14 18:07 | -29.34769 | -56.91344 | 36899 ft | 476 kts | 29° |
| 2026-04-14 18:07 | -29.29305 | -56.87084 | 36897 ft | 475 kts | 29° |
| 2026-04-14 18:08 | -29.23849 | -56.82836 | 36897 ft | 474 kts | 29° |
| 2026-04-14 18:08 | -29.18402 | -56.78601 | 36896 ft | 473 kts | 29° |
| 2026-04-14 18:09 | -29.12962 | -56.74377 | 36894 ft | 472 kts | 29° |
| 2026-04-14 18:09 | -29.07580 | -56.70203 | 36895 ft | 471 kts | 29° |
| 2026-04-14 18:10 | -29.02158 | -56.66004 | 36896 ft | 470 kts | 29° |
| 2026-04-14 18:10 | -28.96743 | -56.61814 | 36893 ft | 469 kts | 29° |
| 2026-04-14 18:11 | -28.91344 | -56.57642 | 36896 ft | 468 kts | 29° |
| 2026-04-14 18:11 | -28.85944 | -56.53476 | 36894 ft | 468 kts | 29° |
| 2026-04-14 18:12 | -28.80552 | -56.49325 | 36894 ft | 467 kts | 29° |
| 2026-04-14 18:12 | -28.75162 | -56.45179 | 36897 ft | 467 kts | 29° |
| 2026-04-14 18:13 | -28.69771 | -56.41037 | 36899 ft | 467 kts | 29° |
| 2026-04-14 18:13 | -28.64377 | -56.36897 | 36896 ft | 468 kts | 29° |
| 2026-04-14 18:14 | -28.58983 | -56.32762 | 36899 ft | 468 kts | 28° |
| 2026-04-14 18:14 | -28.53578 | -56.28624 | 36898 ft | 468 kts | 28° |
| 2026-04-14 18:15 | -28.49075 | -56.25180 | 36898 ft | 469 kts | 28° |
| 2026-04-14 18:15 | -28.42779 | -56.20372 | 36898 ft | 470 kts | 28° |
| 2026-04-14 18:16 | -28.38229 | -56.16901 | 36899 ft | 470 kts | 28° |
| 2026-04-14 18:16 | -28.32790 | -56.12757 | 36892 ft | 471 kts | 28° |
| 2026-04-14 18:17 | -28.27348 | -56.08616 | 36899 ft | 471 kts | 28° |
| 2026-04-14 18:17 | -28.21930 | -56.04498 | 36900 ft | 471 kts | 28° |
| 2026-04-14 18:18 | -28.16484 | -56.00363 | 36897 ft | 472 kts | 28° |
| 2026-04-14 18:18 | -28.11026 | -55.96225 | 36903 ft | 472 kts | 28° |
| 2026-04-14 18:19 | -28.05570 | -55.92093 | 36891 ft | 472 kts | 28° |
| 2026-04-14 18:19 | -28.00117 | -55.87969 | 36897 ft | 471 kts | 27° |
| 2026-04-14 18:20 | -27.94671 | -55.83856 | 36895 ft | 471 kts | 27° |
| 2026-04-14 18:20 | -27.89209 | -55.79735 | 36900 ft | 471 kts | 27° |
| 2026-04-14 18:21 | -27.83762 | -55.75631 | 36898 ft | 471 kts | 27° |
| 2026-04-14 18:21 | -27.78316 | -55.71531 | 36890 ft | 471 kts | 27° |
| 2026-04-14 18:22 | -27.72870 | -55.67437 | 36900 ft | 470 kts | 27° |
| 2026-04-14 18:22 | -27.67421 | -55.63344 | 36896 ft | 470 kts | 27° |
| 2026-04-14 18:23 | -27.61989 | -55.59304 | 36900 ft | 468 kts | 24° |
| 2026-04-14 18:23 | -27.59117 | -55.57644 | 36737 ft | 463 kts | 15° |
| 2026-04-14 18:23 | -27.56070 | -55.56266 | 36225 ft | 466 kts | 14° |
| 2026-04-14 18:24 | -27.53098 | -55.54971 | 35648 ft | 464 kts | 15° |
| 2026-04-14 18:24 | -27.50084 | -55.53669 | 35015 ft | 465 kts | 15° |
| 2026-04-14 18:24 | -27.47055 | -55.52353 | 34373 ft | 466 kts | 16° |
| 2026-04-14 18:24 | -27.44030 | -55.51029 | 33675 ft | 468 kts | 16° |
| 2026-04-14 18:25 | -27.40988 | -55.49685 | 32945 ft | 469 kts | 17° |
| 2026-04-14 18:25 | -27.37944 | -55.48332 | 32266 ft | 469 kts | 17° |
| 2026-04-14 18:25 | -27.34921 | -55.46982 | 31800 ft | 464 kts | 17° |
| 2026-04-14 18:25 | -27.31925 | -55.45643 | 31305 ft | 461 kts | 17° |
| 2026-04-14 18:26 | -27.28960 | -55.44318 | 30830 ft | 457 kts | 17° |
| 2026-04-14 18:26 | -27.26025 | -55.43009 | 30355 ft | 453 kts | 17° |
| 2026-04-14 18:26 | -27.23092 | -55.41702 | 29866 ft | 450 kts | 17° |
| 2026-04-14 18:26 | -27.20193 | -55.40413 | 29314 ft | 446 kts | 17° |
| 2026-04-14 18:27 | -27.17319 | -55.39134 | 28801 ft | 442 kts | 17° |
| 2026-04-14 18:27 | -27.14514 | -55.37888 | 28329 ft | 437 kts | 17° |
| 2026-04-14 18:27 | -27.11690 | -55.36634 | 27838 ft | 433 kts | 17° |
| 2026-04-14 18:27 | -27.08901 | -55.35397 | 27365 ft | 428 kts | 17° |
| 2026-04-14 18:28 | -27.06140 | -55.34172 | 26896 ft | 424 kts | 17° |
| 2026-04-14 18:28 | -27.03406 | -55.32960 | 26435 ft | 421 kts | 17° |
| 2026-04-14 18:28 | -27.00694 | -55.31759 | 25977 ft | 417 kts | 17° |
| 2026-04-14 18:28 | -26.98007 | -55.30569 | 25529 ft | 413 kts | 17° |
| 2026-04-14 18:29 | -26.95334 | -55.29386 | 25066 ft | 410 kts | 17° |
| 2026-04-14 18:29 | -26.92695 | -55.28219 | 24627 ft | 407 kts | 17° |
| 2026-04-14 18:29 | -26.90100 | -55.27072 | 24188 ft | 404 kts | 17° |
| 2026-04-14 18:29 | -26.87490 | -55.25919 | 23723 ft | 402 kts | 18° |
| 2026-04-14 18:30 | -26.84901 | -55.24776 | 23237 ft | 399 kts | 18° |
| 2026-04-14 18:30 | -26.82291 | -55.23624 | 22731 ft | 395 kts | 18° |
| 2026-04-14 18:30 | -26.79765 | -55.22509 | 22264 ft | 392 kts | 18° |
| 2026-04-14 18:30 | -26.77237 | -55.21394 | 21811 ft | 388 kts | 18° |
| 2026-04-14 18:31 | -26.74733 | -55.20290 | 21370 ft | 385 kts | 18° |
| 2026-04-14 18:31 | -26.72253 | -55.19197 | 20937 ft | 381 kts | 19° |
| 2026-04-14 18:31 | -26.69787 | -55.18112 | 20515 ft | 378 kts | 19° |
| 2026-04-14 18:31 | -26.67350 | -55.17039 | 20083 ft | 376 kts | 19° |
| 2026-04-14 18:32 | -26.64926 | -55.15973 | 19655 ft | 373 kts | 19° |
| 2026-04-14 18:32 | -26.62512 | -55.14911 | 19244 ft | 371 kts | 19° |
| 2026-04-14 18:32 | -26.60150 | -55.13873 | 18832 ft | 369 kts | 20° |
| 2026-04-14 18:32 | -26.57759 | -55.12822 | 18409 ft | 368 kts | 20° |
| 2026-04-14 18:33 | -26.55382 | -55.11778 | 17946 ft | 366 kts | 20° |
| 2026-04-14 18:33 | -26.53020 | -55.10742 | 17495 ft | 364 kts | 20° |
| 2026-04-14 18:33 | -26.50674 | -55.09712 | 17051 ft | 361 kts | 20° |
| 2026-04-14 18:34 | -26.43739 | -55.06670 | 15820 ft | 353 kts | 20° |
| 2026-04-14 18:34 | -26.41464 | -55.05674 | 15418 ft | 350 kts | 20° |
| 2026-04-14 18:34 | -26.39197 | -55.04681 | 15018 ft | 348 kts | 20° |
| 2026-04-14 18:35 | -26.36979 | -55.03710 | 14624 ft | 346 kts | 20° |
| 2026-04-14 18:35 | -26.34750 | -55.02734 | 14233 ft | 344 kts | 20° |
| 2026-04-14 18:35 | -26.32520 | -55.01759 | 13836 ft | 342 kts | 20° |
| 2026-04-14 18:35 | -26.30313 | -55.00794 | 13406 ft | 340 kts | 20° |
| 2026-04-14 18:36 | -26.28108 | -54.99831 | 12981 ft | 338 kts | 20° |
| 2026-04-14 18:36 | -26.25928 | -54.98879 | 12572 ft | 336 kts | 20° |
| 2026-04-14 18:36 | -26.23764 | -54.97934 | 12184 ft | 333 kts | 21° |
| 2026-04-14 18:36 | -26.21636 | -54.97005 | 11799 ft | 331 kts | 20° |
| 2026-04-14 18:37 | -26.19469 | -54.96060 | 11404 ft | 329 kts | 20° |
| 2026-04-14 18:37 | -26.17335 | -54.95129 | 11016 ft | 328 kts | 20° |
| 2026-04-14 18:37 | -26.15247 | -54.94218 | 10664 ft | 325 kts | 20° |
| 2026-04-14 18:37 | -26.13175 | -54.93315 | 10533 ft | 315 kts | 20° |
| 2026-04-14 18:38 | -26.11159 | -54.92436 | 10383 ft | 307 kts | 20° |
| 2026-04-14 18:38 | -26.09198 | -54.91582 | 10254 ft | 298 kts | 21° |
| 2026-04-14 18:38 | -26.07293 | -54.90753 | 10128 ft | 289 kts | 20° |
| 2026-04-14 18:38 | -26.05442 | -54.89947 | 10003 ft | 281 kts | 20° |
| 2026-04-14 18:39 | -26.03640 | -54.89163 | 9855 ft | 275 kts | 20° |
| 2026-04-14 18:39 | -26.01860 | -54.88389 | 9564 ft | 274 kts | 20° |
| 2026-04-14 18:39 | -26.00087 | -54.87618 | 9284 ft | 272 kts | 20° |
| 2026-04-14 18:39 | -25.98329 | -54.86854 | 9009 ft | 270 kts | 20° |
| 2026-04-14 18:40 | -25.96607 | -54.86106 | 8740 ft | 269 kts | 20° |
| 2026-04-14 18:40 | -25.94874 | -54.85353 | 8477 ft | 267 kts | 20° |
| 2026-04-14 18:40 | -25.93141 | -54.84601 | 8196 ft | 266 kts | 20° |
| 2026-04-14 18:40 | -25.91417 | -54.83853 | 7921 ft | 265 kts | 20° |
| 2026-04-14 18:41 | -25.89710 | -54.83112 | 7665 ft | 263 kts | 20° |
| 2026-04-14 18:41 | -25.88002 | -54.82370 | 7403 ft | 262 kts | 20° |
| 2026-04-14 18:41 | -25.86316 | -54.81639 | 7148 ft | 260 kts | 20° |
| 2026-04-14 18:41 | -25.84639 | -54.80912 | 6902 ft | 258 kts | 20° |
| 2026-04-14 18:42 | -25.82971 | -54.80189 | 6648 ft | 257 kts | 20° |
| 2026-04-14 18:42 | -25.81310 | -54.79469 | 6415 ft | 255 kts | 20° |
| 2026-04-14 18:42 | -25.79665 | -54.78757 | 6152 ft | 251 kts | 20° |
| 2026-04-14 18:42 | -25.78062 | -54.78062 | 5937 ft | 241 kts | 20° |
| 2026-04-14 18:43 | -25.76527 | -54.77397 | 5711 ft | 233 kts | 21° |
| 2026-04-14 18:43 | -25.75034 | -54.76751 | 5589 ft | 227 kts | 21° |
| 2026-04-14 18:43 | -25.73590 | -54.76126 | 5486 ft | 227 kts | 20° |
| 2026-04-14 18:43 | -25.72037 | -54.75456 | 4913 ft | 246 kts | 21° |
| 2026-04-14 18:44 | -25.70459 | -54.74746 | 4572 ft | 242 kts | 27° |
| 2026-04-14 18:44 | -25.69202 | -54.73528 | 4195 ft | 242 kts | 52° |
| 2026-04-14 18:44 | -25.68414 | -54.71914 | 3855 ft | 240 kts | 64° |
| 2026-04-14 18:44 | -25.67797 | -54.70253 | 3839 ft | 224 kts | 65° |
| 2026-04-14 18:45 | -25.67226 | -54.68690 | 3802 ft | 217 kts | 65° |
| 2026-04-14 18:45 | -25.66655 | -54.67148 | 3804 ft | 216 kts | 65° |
| 2026-04-14 18:45 | -25.66332 | -54.65485 | 3341 ft | 235 kts | 94° |
| 2026-04-14 18:45 | -25.66839 | -54.63749 | 2926 ft | 239 kts | 111° |
| 2026-04-14 18:46 | -25.67531 | -54.62139 | 2775 ft | 224 kts | 111° |
| 2026-04-14 18:46 | -25.68179 | -54.60631 | 2609 ft | 210 kts | 111° |
| 2026-04-14 18:46 | -25.68796 | -54.59162 | 2538 ft | 207 kts | 111° |
| 2026-04-14 18:46 | -25.69385 | -54.57754 | 2500 ft | 196 kts | 110° |
| 2026-04-14 18:47 | -25.69941 | -54.56421 | 2430 ft | 187 kts | 110° |
| 2026-04-14 18:47 | -25.70480 | -54.55124 | 2181 ft | 183 kts | 111° |
| 2026-04-14 18:47 | -25.71001 | -54.53875 | 1984 ft | 171 kts | 112° |
| 2026-04-14 18:47 | -25.71476 | -54.52736 | 1716 ft | 156 kts | 111° |
| 2026-04-14 18:48 | -25.71906 | -54.51702 | 1504 ft | 145 kts | 111° |
| 2026-04-14 18:48 | -25.72328 | -54.50693 | 1376 ft | 150 kts | 112° |
| 2026-04-14 18:48 | -25.72762 | -54.49643 | 1163 ft | 147 kts | 114° |
| 2026-04-14 18:48 | -25.73192 | -54.48618 | 933 ft | 144 kts | 112° |
| 2026-04-14 18:49 | -25.73578 | -54.47704 | 921 ft | 113 kts | 115° |
| 2026-04-14 18:49 | -25.73773 | -54.47244 | 916 ft | 27 kts | 123° |
| 2026-04-14 18:49 | -25.73796 | -54.47181 | 916 ft | 4 kts | 8° |
| 2026-04-14 18:49 | -25.73776 | -54.47208 | 916 ft | 5 kts | 304° |
| 2026-04-14 18:50 | -25.73756 | -54.47235 | 916 ft | 4 kts | 313° |
| 2026-04-14 18:50 | -25.73733 | -54.47261 | 916 ft | 5 kts | 313° |
| 2026-04-14 18:50 | -25.73709 | -54.47286 | 916 ft | 5 kts | 322° |
| 2026-04-14 18:50 | -25.73677 | -54.47312 | 914 ft | 7 kts | 322° |
| 2026-04-14 18:51 | -25.73633 | -54.47348 | 912 ft | 9 kts | 325° |
| 2026-04-14 18:51 | -25.73574 | -54.47394 | 909 ft | 11 kts | 324° |
| 2026-04-14 18:51 | -25.73510 | -54.47446 | 908 ft | 11 kts | 324° |
| 2026-04-14 18:51 | -25.73446 | -54.47495 | 907 ft | 11 kts | 325° |
| 2026-04-14 18:52 | -25.73385 | -54.47543 | 906 ft | 11 kts | 324° |
| 2026-04-14 18:52 | -25.73325 | -54.47592 | 906 ft | 10 kts | 319° |
| 2026-04-14 18:52 | -25.73289 | -54.47654 | 906 ft | 8 kts | 295° |
| 2026-04-14 18:52 | -25.73268 | -54.47692 | 906 ft | 2 kts | 344° |
| 2026-04-14 18:53 | -25.73251 | -54.47687 | 906 ft | 3 kts | 17° |
| 2026-04-14 18:53 | -25.73227 | -54.47676 | 906 ft | 3 kts | 23° |
| 2026-04-14 18:53 | -25.73226 | -54.47675 | 906 ft | 0 kts | 24° |